createdAt,value
2019-03-05T00:01:49.603Z,94363.30
2019-03-05T00:04:19.151Z,94356.84
2019-03-05T00:06:48.709Z,94349.11
2019-03-05T00:09:22.538Z,94349.80
2019-03-05T00:11:52.294Z,94352.73
2019-03-05T00:14:23.803Z,94339.83
2019-03-05T00:16:53.511Z,94344.05
2019-03-05T00:19:23.009Z,94344.36
2019-03-05T00:21:52.521Z,94345.50
2019-03-05T00:25:00.667Z,94348.11
2019-03-05T00:27:33.065Z,94352.73
2019-03-05T00:31:07.969Z,94351.45
2019-03-05T00:34:05.185Z,94351.88
2019-03-05T00:36:50.685Z,94341.32
2019-03-05T00:39:48.726Z,94340.87
2019-03-05T00:42:44.276Z,94342.42
2019-03-05T00:45:44.304Z,94357.94
2019-03-05T00:48:52.543Z,94356.05
2019-03-05T00:52:08.695Z,94353.84
2019-03-05T00:55:00.568Z,94357.12
2019-03-05T00:57:52.323Z,94360.38
2019-03-05T01:00:46.934Z,94355.98
2019-03-05T01:03:46.343Z,94356.07
2019-03-05T01:06:17.611Z,94356.30
2019-03-05T01:08:47.097Z,94374.17
2019-03-05T01:11:17.529Z,94365.05
2019-03-05T01:13:47.195Z,94362.14
2019-03-05T01:16:18.291Z,94351.27
2019-03-05T01:18:47.783Z,94359.72
2019-03-05T01:21:17.575Z,94347.27
2019-03-05T01:23:47.230Z,94351.72
2019-03-05T01:26:16.738Z,94341.80
2019-03-05T01:28:46.200Z,94347.99
2019-03-05T01:31:33.440Z,94349.24
2019-03-05T01:34:16.722Z,94342.28
2019-03-05T01:36:50.008Z,94345.07
2019-03-05T01:39:54.049Z,94351.45
2019-03-05T01:42:23.620Z,94349.42
2019-03-05T01:44:53.083Z,94350.78
2019-03-05T01:47:22.576Z,94332.13
2019-03-05T01:49:52.081Z,94341.84
2019-03-05T01:52:21.612Z,94319.84
2019-03-05T01:54:51.099Z,94305.02
2019-03-05T01:57:20.603Z,94312.42
2019-03-05T01:59:50.100Z,94314.22
2019-03-05T02:02:19.604Z,94310.67
2019-03-05T02:04:49.073Z,94314.21
2019-03-05T02:07:18.885Z,94301.92
2019-03-05T02:09:48.494Z,94302.55
2019-03-05T02:12:18.010Z,94308.13
2019-03-05T02:14:47.490Z,94304.42
2019-03-05T02:17:17.091Z,94308.13
2019-03-05T02:19:49.310Z,94299.27
2019-03-05T02:22:43.732Z,94308.70
2019-03-05T02:25:37.325Z,94313.05
2019-03-05T02:28:35.472Z,94289.30
2019-03-05T02:31:27.913Z,94300.75
2019-03-05T02:34:35.211Z,94300.34
2019-03-05T02:37:36.693Z,94291.15
2019-03-05T02:40:45.203Z,94306.14
2019-03-05T02:43:27.071Z,94295.55
2019-03-05T02:46:35.421Z,94294.45
2019-03-05T02:49:52.000Z,94301.80
2019-03-05T02:52:54.266Z,94285.20
2019-03-05T02:56:07.662Z,94295.42
2019-03-05T02:58:35.348Z,94282.47
2019-03-05T03:01:22.389Z,94268.66
2019-03-05T03:03:55.351Z,94263.95
2019-03-05T03:06:27.903Z,94269.95
2019-03-05T03:09:30.647Z,94281.05
2019-03-05T03:12:00.235Z,94285.03
2019-03-05T03:14:29.734Z,94294.19
2019-03-05T03:16:59.224Z,94311.59
2019-03-05T03:19:28.732Z,94311.41
2019-03-05T03:21:58.257Z,94305.27
2019-03-05T03:24:27.830Z,94305.89
2019-03-05T03:26:57.309Z,94309.38
2019-03-05T03:29:26.788Z,94318.89
2019-03-05T03:31:56.253Z,94318.58
2019-03-05T03:34:25.851Z,94335.25
2019-03-05T03:36:55.362Z,94333.95
2019-03-05T03:39:24.871Z,94329.52
2019-03-05T03:41:54.370Z,94325.63
2019-03-05T03:44:23.885Z,94324.14
2019-03-05T03:46:53.387Z,94329.74
2019-03-05T03:49:22.899Z,94321.55
2019-03-05T03:51:52.392Z,94331.53
2019-03-05T03:54:21.898Z,94336.66
2019-03-05T03:56:51.441Z,94340.03
2019-03-05T03:59:20.926Z,94346.79
2019-03-05T04:01:50.425Z,94353.05
2019-03-05T04:04:19.931Z,94350.44
2019-03-05T04:06:49.423Z,94361.41
2019-03-05T04:09:18.934Z,94356.31
2019-03-05T04:11:48.431Z,94352.61
2019-03-05T04:14:17.931Z,94361.51
2019-03-05T04:16:47.421Z,94354.02
2019-03-05T04:19:20.028Z,94347.42
2019-03-05T04:21:49.597Z,94343.45
2019-03-05T04:24:19.101Z,94352.27
2019-03-05T04:26:48.635Z,94355.77
2019-03-05T04:29:18.100Z,94350.34
2019-03-05T04:31:47.580Z,94356.78
2019-03-05T04:34:17.109Z,94355.48
2019-03-05T04:36:46.633Z,94365.45
2019-03-05T04:39:16.170Z,94370.91
2019-03-05T04:41:45.669Z,94386.57
2019-03-05T04:44:18.680Z,94381.40
2019-03-05T04:46:51.664Z,94386.08
2019-03-05T04:49:52.137Z,94381.91
2019-03-05T04:52:25.396Z,94384.02
2019-03-05T04:54:54.906Z,94389.57
2019-03-05T04:57:24.432Z,94393.73
2019-03-05T04:59:53.930Z,94402.42
2019-03-05T05:02:23.488Z,94399.39
2019-03-05T05:04:53.020Z,94411.17
2019-03-05T05:07:22.474Z,94399.91
2019-03-05T05:09:51.984Z,94404.25
2019-03-05T05:12:21.491Z,94407.49
2019-03-05T05:14:51.019Z,94396.10
2019-03-05T05:17:20.537Z,94394.24
2019-03-05T05:19:50.030Z,94401.30
2019-03-05T05:22:19.535Z,94410.99
2019-03-05T05:24:49.086Z,94401.44
2019-03-05T05:27:18.575Z,94400.83
2019-03-05T05:29:48.051Z,94395.72
2019-03-05T05:32:17.632Z,94395.41
2019-03-05T05:34:47.216Z,94395.31
2019-03-05T05:37:16.787Z,94390.65
2019-03-05T05:40:21.706Z,94391.27
2019-03-05T05:42:51.264Z,94396.73
2019-03-05T05:45:21.417Z,94413.63
2019-03-05T05:47:50.941Z,94427.78
2019-03-05T05:50:21.130Z,94432.17
2019-03-05T05:52:50.674Z,94419.06
2019-03-05T05:55:20.202Z,94403.37
2019-03-05T05:57:49.768Z,94404.64
2019-03-05T06:00:19.319Z,94406.36
2019-03-05T06:02:48.875Z,94410.97
2019-03-05T06:05:18.486Z,94411.27
2019-03-05T06:07:48.036Z,94426.77
2019-03-05T06:10:17.547Z,94421.45
2019-03-05T06:12:47.037Z,94427.25
2019-03-05T06:15:16.541Z,94424.30
2019-03-05T06:17:46.084Z,94427.58
2019-03-05T06:20:15.603Z,94431.27
2019-03-05T06:22:45.102Z,94427.60
2019-03-05T06:25:15.179Z,94426.07
2019-03-05T06:27:44.714Z,94438.72
2019-03-05T06:30:15.187Z,94427.63
2019-03-05T06:32:44.665Z,94433.39
2019-03-05T06:35:14.573Z,94440.72
2019-03-05T06:37:44.106Z,94453.70
2019-03-05T06:40:15.052Z,94459.95
2019-03-05T06:42:44.541Z,94455.95
2019-03-05T06:45:15.724Z,94461.78
2019-03-05T06:47:45.452Z,94450.80
2019-03-05T06:50:15.019Z,94451.35
2019-03-05T06:52:44.636Z,94457.48
2019-03-05T06:55:14.688Z,94464.58
2019-03-05T06:57:44.413Z,94466.88
2019-03-05T07:00:23.889Z,94461.60
2019-03-05T07:02:53.467Z,94460.23
2019-03-05T07:05:58.804Z,94470.74
2019-03-05T07:08:28.290Z,94462.50
2019-03-05T07:11:16.582Z,94466.77
2019-03-05T07:13:46.146Z,94473.84
2019-03-05T07:16:36.219Z,94478.41
2019-03-05T07:19:41.859Z,94487.16
2019-03-05T07:22:20.879Z,94477.67
2019-03-05T07:24:51.442Z,94473.09
2019-03-05T07:27:53.477Z,94456.54
2019-03-05T07:30:24.526Z,94468.43
2019-03-05T07:32:54.740Z,94470.56
2019-03-05T07:35:26.232Z,94477.53
2019-03-05T07:37:55.794Z,94466.58
2019-03-05T07:40:25.351Z,94476.77
2019-03-05T07:42:54.852Z,94479.39
2019-03-05T07:45:24.474Z,94491.27
2019-03-05T07:47:53.997Z,94491.61
2019-03-05T07:50:23.528Z,94492.72
2019-03-05T07:52:53.099Z,94488.20
2019-03-05T07:55:22.587Z,94479.22
2019-03-05T07:57:52.091Z,94484.66
2019-03-05T08:00:22.602Z,94476.48
2019-03-05T08:02:52.185Z,94470.92
2019-03-05T08:05:21.677Z,94465.45
2019-03-05T08:07:51.241Z,94472.55
2019-03-05T08:10:29.455Z,94479.62
2019-03-05T08:13:07.120Z,94470.66
2019-03-05T08:16:23.071Z,94467.58
2019-03-05T08:18:52.672Z,94467.45
2019-03-05T08:21:22.177Z,94475.59
2019-03-05T08:23:51.689Z,94468.67
2019-03-05T08:26:24.556Z,94464.23
2019-03-05T08:28:54.050Z,94464.29
2019-03-05T08:31:23.571Z,94460.23
2019-03-05T08:33:53.093Z,94459.48
2019-03-05T08:36:22.624Z,94462.28
2019-03-05T08:38:52.092Z,94464.31
2019-03-05T08:41:21.603Z,94464.94
2019-03-05T08:43:51.238Z,94455.98
2019-03-05T08:46:20.764Z,94457.25
2019-03-05T08:48:50.322Z,94456.58
2019-03-05T08:51:19.886Z,94457.97
2019-03-05T08:53:50.060Z,94451.22
2019-03-05T08:56:19.682Z,94456.91
2019-03-05T08:58:49.213Z,94455.11
2019-03-05T09:01:18.799Z,94458.84
2019-03-05T09:03:48.317Z,94452.63
2019-03-05T09:06:17.870Z,94458.48
2019-03-05T09:08:47.443Z,94446.91
2019-03-05T09:11:17.079Z,94443.06
2019-03-05T09:13:46.575Z,94449.33
2019-03-05T09:16:16.193Z,94444.75
2019-03-05T09:18:45.797Z,94441.53
2019-03-05T09:21:15.723Z,94446.32
2019-03-05T09:23:45.315Z,94459.59
2019-03-05T09:26:15.004Z,94448.08
2019-03-05T09:28:44.653Z,94445.32
2019-03-05T09:31:14.165Z,94439.90
2019-03-05T09:33:43.691Z,94441.59
2019-03-05T09:36:13.209Z,94441.50
2019-03-05T09:38:42.730Z,94437.92
2019-03-05T09:41:12.249Z,94441.34
2019-03-05T09:43:41.747Z,94436.09
2019-03-05T09:46:12.833Z,94441.12
2019-03-05T09:48:42.346Z,94441.14
2019-03-05T09:51:11.855Z,94441.19
2019-03-05T09:53:41.427Z,94437.77
2019-03-05T09:56:11.058Z,94444.06
2019-03-05T09:58:40.665Z,94443.45
2019-03-05T10:01:12.448Z,94439.90
2019-03-05T10:03:41.942Z,94439.09
2019-03-05T10:06:11.453Z,94433.42
2019-03-05T10:08:41.073Z,94423.95
2019-03-05T10:11:11.753Z,94430.48
2019-03-05T10:13:41.236Z,94429.30
2019-03-05T10:16:10.817Z,94425.57
2019-03-05T10:18:42.268Z,94423.11
2019-03-05T10:21:14.897Z,94431.78
2019-03-05T10:23:45.398Z,94424.17
2019-03-05T10:26:14.959Z,94416.89
2019-03-05T10:28:44.562Z,94413.55
2019-03-05T10:31:14.040Z,94404.34
2019-03-05T10:33:43.519Z,94404.52
2019-03-05T10:36:13.086Z,94408.16
2019-03-05T10:38:42.614Z,94403.66
2019-03-05T10:41:12.233Z,94391.27
2019-03-05T10:43:41.816Z,94402.41
2019-03-05T10:46:11.900Z,94395.72
2019-03-05T10:48:41.448Z,94390.56
2019-03-05T10:51:10.968Z,94379.02
2019-03-05T10:53:40.593Z,94365.56
2019-03-05T10:56:10.208Z,94378.03
2019-03-05T10:58:39.766Z,94372.67
2019-03-05T11:01:11.167Z,94369.23
2019-03-05T11:03:40.643Z,94363.05
2019-03-05T11:06:10.121Z,94364.41
2019-03-05T11:08:39.720Z,94363.85
2019-03-05T11:11:13.393Z,94354.14
2019-03-05T11:13:40.748Z,94360.43
2019-03-05T11:16:10.603Z,94350.47
2019-03-05T11:18:40.121Z,94360.61
2019-03-05T11:21:09.717Z,94363.73
2019-03-05T11:23:39.308Z,94345.78
2019-03-05T11:26:08.895Z,94346.98
2019-03-05T11:28:38.355Z,94353.55
2019-03-05T11:31:08.036Z,94358.19
2019-03-05T11:33:37.539Z,94353.23
2019-03-05T11:36:07.301Z,94355.08
2019-03-05T11:38:36.803Z,94351.96
2019-03-05T11:41:06.407Z,94355.94
2019-03-05T11:43:35.990Z,94349.17
2019-03-05T11:46:08.725Z,94358.97
2019-03-05T11:48:38.282Z,94348.19
2019-03-05T11:51:07.811Z,94351.81
2019-03-05T11:53:37.337Z,94349.69
2019-03-05T11:56:07.076Z,94340.80
2019-03-05T11:58:36.607Z,94348.66
2019-03-05T12:01:13.790Z,94341.42
2019-03-05T12:03:43.290Z,94340.30
2019-03-05T12:06:12.839Z,94340.63
2019-03-05T12:08:42.394Z,94337.17
2019-03-05T12:11:11.918Z,94342.42
2019-03-05T12:13:41.437Z,94336.34
2019-03-05T12:16:13.236Z,94333.84
2019-03-05T12:18:42.721Z,94338.37
2019-03-05T12:21:12.262Z,94341.53
2019-03-05T12:23:46.793Z,94339.78
2019-03-05T12:26:13.085Z,94336.55
2019-03-05T12:28:42.619Z,94340.68
2019-03-05T12:31:12.190Z,94346.50
2019-03-05T12:33:41.687Z,94337.20
2019-03-05T12:36:11.779Z,94339.88
2019-03-05T12:38:41.287Z,94333.51
2019-03-05T12:41:10.862Z,94335.53
2019-03-05T12:43:40.358Z,94341.78
2019-03-05T12:46:09.908Z,94340.88
2019-03-05T12:48:40.445Z,94336.52
2019-03-05T12:51:10.953Z,94337.95
2019-03-05T12:53:40.476Z,94331.30
2019-03-05T12:56:10.021Z,94333.23
2019-03-05T12:58:39.635Z,94335.42
2019-03-05T13:01:09.408Z,94334.53
2019-03-05T13:03:38.912Z,94330.64
2019-03-05T13:06:08.448Z,94328.63
2019-03-05T13:08:37.929Z,94328.06
2019-03-05T13:11:09.304Z,94329.91
2019-03-05T13:13:38.764Z,94330.98
2019-03-05T13:16:08.296Z,94330.33
2019-03-05T13:18:37.847Z,94333.13
2019-03-05T13:21:08.620Z,94332.53
2019-03-05T13:23:38.291Z,94330.34
2019-03-05T13:26:09.220Z,94330.81
2019-03-05T13:28:40.563Z,94336.11
2019-03-05T13:31:10.161Z,94327.93
2019-03-05T13:33:42.012Z,94328.77
2019-03-05T13:36:12.494Z,94328.53
2019-03-05T13:38:45.387Z,94328.36
2019-03-05T13:41:15.693Z,94332.13
2019-03-05T13:43:45.696Z,94336.42
2019-03-05T13:46:15.164Z,94336.34
2019-03-05T13:49:14.415Z,94341.16
2019-03-05T13:52:12.751Z,94347.73
2019-03-05T13:55:14.552Z,94338.15
2019-03-05T13:58:20.089Z,94337.79
2019-03-05T14:00:50.884Z,94338.83
2019-03-05T14:03:24.154Z,94345.55
2019-03-05T14:06:21.814Z,94347.57
2019-03-05T14:09:15.851Z,94349.56
2019-03-05T14:11:46.775Z,94345.60
2019-03-05T14:14:39.191Z,94346.67
2019-03-05T14:17:33.486Z,94348.81
2019-03-05T14:20:03.117Z,94348.89
2019-03-05T14:22:32.635Z,94348.75
2019-03-05T14:25:03.075Z,94341.91
2019-03-05T14:27:32.716Z,94347.00
2019-03-05T14:30:03.029Z,94349.16
2019-03-05T14:32:32.755Z,94355.22
2019-03-05T14:35:04.276Z,94355.98
2019-03-05T14:37:33.949Z,94355.17
2019-03-05T14:40:22.901Z,94355.17
2019-03-05T14:42:34.950Z,94363.86
2019-03-05T14:45:04.714Z,94358.81
2019-03-05T14:47:34.243Z,94361.17
2019-03-05T14:50:03.918Z,94358.48
2019-03-05T14:52:33.453Z,94356.36
2019-03-05T14:55:02.928Z,94355.08
2019-03-05T14:57:32.549Z,94347.70
2019-03-05T15:00:02.104Z,94345.83
2019-03-05T15:02:31.667Z,94346.06
2019-03-05T15:05:01.207Z,94348.98
2019-03-05T15:07:30.777Z,94345.34
2019-03-05T15:10:00.476Z,94352.30
2019-03-05T15:12:30.053Z,94340.59
2019-03-05T15:14:59.659Z,94347.71
2019-03-05T15:17:29.252Z,94350.08
2019-03-05T15:19:58.864Z,94343.38
2019-03-05T15:22:28.432Z,94347.06
2019-03-05T15:24:58.055Z,94349.45
2019-03-05T15:27:27.539Z,94347.29
2019-03-05T15:29:57.107Z,94353.85
2019-03-05T15:32:33.888Z,94349.37
2019-03-05T15:35:03.339Z,94347.24
2019-03-05T15:37:32.820Z,94350.64
2019-03-05T15:40:02.347Z,94349.84
2019-03-05T15:42:31.910Z,94351.16
2019-03-05T15:45:01.387Z,94367.53
2019-03-05T15:47:30.998Z,94368.28
2019-03-05T15:50:00.607Z,94368.98
2019-03-05T15:52:30.232Z,94367.94
2019-03-05T15:54:59.771Z,94377.95
2019-03-05T15:57:29.316Z,94383.47
2019-03-05T15:59:58.838Z,94383.98
2019-03-05T16:02:28.429Z,94387.89
2019-03-05T16:04:57.933Z,94394.21
2019-03-05T16:07:27.473Z,94401.80
2019-03-05T16:09:57.037Z,94402.82
2019-03-05T16:12:26.554Z,94412.17
2019-03-05T16:14:56.092Z,94420.19
2019-03-05T16:17:28.216Z,94421.70
2019-03-05T16:19:56.987Z,94422.09
2019-03-05T16:22:29.162Z,94423.21
2019-03-05T16:24:58.757Z,94429.15
2019-03-05T16:27:29.938Z,94424.24
2019-03-05T16:29:59.519Z,94434.23
2019-03-05T16:32:37.648Z,94441.73
2019-03-05T16:35:25.501Z,94436.30
2019-03-05T16:38:09.629Z,94451.75
2019-03-05T16:40:56.789Z,94460.09
2019-03-05T16:43:51.389Z,94459.22
2019-03-05T16:46:38.669Z,94465.66
2019-03-05T16:49:17.831Z,94470.77
2019-03-05T16:51:52.735Z,94487.45
2019-03-05T16:54:50.129Z,94491.30
2019-03-05T16:57:41.705Z,94493.52
2019-03-05T17:00:20.556Z,94498.50
2019-03-05T17:03:10.866Z,94512.31
2019-03-05T17:06:11.382Z,94517.98
2019-03-05T17:08:48.964Z,94525.23
2019-03-05T17:11:51.298Z,94525.12
2019-03-05T17:14:20.837Z,94522.30
2019-03-05T17:16:50.436Z,94527.72
2019-03-05T17:19:19.999Z,94537.56
2019-03-05T17:21:49.664Z,94529.88
2019-03-05T17:24:19.788Z,94535.84
2019-03-05T17:26:49.299Z,94542.94
2019-03-05T17:29:18.873Z,94537.00
2019-03-05T17:31:48.520Z,94548.66
2019-03-05T17:34:18.256Z,94554.37
2019-03-05T17:36:47.852Z,94556.66
2019-03-05T17:39:25.962Z,94564.85
2019-03-05T17:41:55.633Z,94562.36
2019-03-05T17:44:25.320Z,94568.27
2019-03-05T17:46:54.851Z,94570.19
2019-03-05T17:49:24.540Z,94556.01
2019-03-05T17:51:54.092Z,94565.34
2019-03-05T17:54:23.665Z,94580.41
2019-03-05T17:56:53.527Z,94571.28
2019-03-05T17:59:23.058Z,94581.88
2019-03-05T18:01:52.583Z,94587.48
2019-03-05T18:04:22.115Z,94585.66
2019-03-05T18:06:51.645Z,94588.08
2019-03-05T18:09:21.175Z,94588.67
2019-03-05T18:11:50.779Z,94591.09
2019-03-05T18:14:20.355Z,94590.50
2019-03-05T18:16:49.834Z,94594.66
2019-03-05T18:19:19.463Z,94595.16
2019-03-05T18:21:49.106Z,94597.36
2019-03-05T18:24:18.678Z,94597.06
2019-03-05T18:26:48.557Z,94605.95
2019-03-05T18:29:18.109Z,94603.51
2019-03-05T18:31:47.888Z,94607.75
2019-03-05T18:34:18.444Z,94609.76
2019-03-05T18:36:50.841Z,94605.70
2019-03-05T18:39:20.668Z,94616.27
2019-03-05T18:41:50.210Z,94618.54
2019-03-05T18:44:21.542Z,94624.51
2019-03-05T18:46:51.362Z,94624.62
2019-03-05T18:49:20.884Z,94626.80
2019-03-05T18:51:50.457Z,94632.65
2019-03-05T18:54:19.979Z,94630.73
2019-03-05T18:56:49.552Z,94636.80
2019-03-05T18:59:19.176Z,94638.73
2019-03-05T19:01:48.772Z,94650.39
2019-03-05T19:04:18.350Z,94644.13
2019-03-05T19:06:47.961Z,94645.76
2019-03-05T19:09:17.693Z,94647.01
2019-03-05T19:11:47.244Z,94646.11
2019-03-05T19:14:16.736Z,94653.98
2019-03-05T19:16:46.325Z,94642.52
2019-03-05T19:19:15.873Z,94653.08
2019-03-05T19:21:45.398Z,94649.34
2019-03-05T19:24:14.981Z,94654.53
2019-03-05T19:26:44.518Z,94650.96
2019-03-05T19:29:14.060Z,94655.72
2019-03-05T19:31:43.587Z,94650.89
2019-03-05T19:34:13.158Z,94650.09
2019-03-05T19:36:42.694Z,94655.34
2019-03-05T19:39:13.804Z,94654.48
2019-03-05T19:41:43.496Z,94666.52
2019-03-05T19:44:13.054Z,94673.73
2019-03-05T19:46:42.533Z,94671.97
2019-03-05T19:49:12.063Z,94679.65
2019-03-05T19:51:41.708Z,94680.80
2019-03-05T19:54:11.305Z,94684.03
2019-03-05T19:56:40.868Z,94697.03
2019-03-05T19:59:10.382Z,94691.09
2019-03-05T20:01:43.015Z,94698.95
2019-03-05T20:04:15.475Z,94702.31
2019-03-05T20:06:44.992Z,94705.65
2019-03-05T20:09:18.471Z,94709.89
2019-03-05T20:11:48.021Z,94717.27
2019-03-05T20:14:17.585Z,94724.36
2019-03-05T20:16:47.084Z,94727.22
2019-03-05T20:19:16.593Z,94723.59
2019-03-05T20:21:46.121Z,94722.47
2019-03-05T20:24:16.067Z,94726.51
2019-03-05T20:26:45.776Z,94727.31
2019-03-05T20:29:15.279Z,94733.17
2019-03-05T20:31:44.821Z,94728.94
2019-03-05T20:34:14.316Z,94728.45
2019-03-05T20:36:44.159Z,94727.77
2019-03-05T20:39:13.743Z,94733.23
2019-03-05T20:41:43.247Z,94739.80
2019-03-05T20:44:15.546Z,94746.25
2019-03-05T20:46:45.088Z,94745.85
2019-03-05T20:49:14.601Z,94750.11
2019-03-05T20:51:44.093Z,94746.96
2019-03-05T20:54:13.664Z,94747.86
2019-03-05T20:56:43.149Z,94754.41
2019-03-05T20:59:13.472Z,94747.89
2019-03-05T21:01:43.126Z,94763.61
2019-03-05T21:04:12.748Z,94768.88
2019-03-05T21:06:42.258Z,94783.78
2019-03-05T21:09:21.843Z,94796.30
2019-03-05T21:11:51.491Z,94823.61
2019-03-05T21:14:20.961Z,94845.46
2019-03-05T21:16:50.489Z,94842.00
2019-03-05T21:19:20.013Z,94847.80
2019-03-05T21:21:49.494Z,94850.27
2019-03-05T21:24:18.964Z,94861.52
2019-03-05T21:26:48.452Z,94860.52
2019-03-05T21:29:17.955Z,94862.53
2019-03-05T21:31:47.460Z,94855.96
2019-03-05T21:34:17.107Z,94854.52
2019-03-05T21:36:46.856Z,94853.87
2019-03-05T21:39:18.606Z,94856.21
2019-03-05T21:41:48.193Z,94849.86
2019-03-05T21:44:17.848Z,94850.04
2019-03-05T21:46:47.527Z,94849.63
2019-03-05T21:49:17.199Z,94847.05
2019-03-05T21:51:46.729Z,94854.40
2019-03-05T21:54:16.195Z,94839.91
2019-03-05T21:56:45.869Z,94830.95
2019-03-05T21:59:15.365Z,94826.84
2019-03-05T22:01:45.028Z,94820.69
2019-03-05T22:04:14.594Z,94840.03
2019-03-05T22:06:44.073Z,94839.84
2019-03-05T22:09:13.731Z,94831.83
2019-03-05T22:11:43.488Z,94846.44
2019-03-05T22:14:12.944Z,94846.52
2019-03-05T22:16:42.436Z,94855.23
2019-03-05T22:19:11.935Z,94866.73
2019-03-05T22:21:41.480Z,94855.55
2019-03-05T22:24:10.939Z,94864.12
2019-03-05T22:26:40.433Z,94873.40
2019-03-05T22:29:09.950Z,94868.09
2019-03-05T22:31:39.536Z,94870.70
2019-03-05T22:34:09.061Z,94863.13
2019-03-05T22:36:38.705Z,94856.45
2019-03-05T22:39:08.693Z,94860.20
2019-03-05T22:41:38.408Z,94865.73
2019-03-05T22:44:08.072Z,94877.95
2019-03-05T22:46:37.618Z,94871.16
2019-03-05T22:49:07.141Z,94873.58
2019-03-05T22:51:36.705Z,94873.81
2019-03-05T22:54:06.162Z,94871.65
2019-03-05T22:56:35.678Z,94870.66
2019-03-05T22:59:05.451Z,94868.72
2019-03-05T23:01:38.796Z,94874.13
2019-03-05T23:04:09.060Z,94867.36
2019-03-05T23:06:39.056Z,94873.00
2019-03-05T23:09:20.971Z,94878.55
2019-03-05T23:11:50.545Z,94882.42
2019-03-05T23:14:20.442Z,94879.80
2019-03-05T23:16:50.030Z,94884.66
2019-03-05T23:19:19.844Z,94882.91
2019-03-05T23:21:49.539Z,94886.65
2019-03-05T23:24:19.039Z,94881.55
2019-03-05T23:26:48.518Z,94887.28
2019-03-05T23:29:19.677Z,94883.22
2019-03-05T23:31:49.216Z,94881.73
2019-03-05T23:34:19.026Z,94889.21
2019-03-05T23:36:48.576Z,94892.38
2019-03-05T23:39:18.782Z,94888.02
2019-03-05T23:41:48.276Z,94884.09
2019-03-05T23:44:17.792Z,94878.19
2019-03-05T23:46:47.347Z,94880.93
2019-03-05T23:49:16.831Z,94875.94
2019-03-05T23:51:46.446Z,94876.43
2019-03-05T23:54:15.929Z,94875.75
2019-03-05T23:56:45.424Z,94872.14
2019-03-05T23:59:14.901Z,94866.91
